createdAt,value
2022-12-19T00:00:17.210Z,13.88
2022-12-19T00:02:43.951Z,16.50
2022-12-19T00:05:14.497Z,16.75
2022-12-19T00:07:43.461Z,17.38
2022-12-19T00:10:10.363Z,15.30
2022-12-19T00:12:39.618Z,15.70
2022-12-19T00:15:07.134Z,15.60
2022-12-19T00:17:33.876Z,14.68
2022-12-19T00:20:03.746Z,16.30
2022-12-19T00:22:30.519Z,15.75
2022-12-19T00:24:57.220Z,15.63
2022-12-19T00:27:28.538Z,13.70
2022-12-19T00:29:57.355Z,16.27
2022-12-19T00:32:24.049Z,16.58
2022-12-19T00:34:56.544Z,13.60
2022-12-19T00:37:25.142Z,13.07
2022-12-19T00:39:51.849Z,17.17
2022-12-19T00:42:18.559Z,16.92
2022-12-19T00:44:45.266Z,16.52
2022-12-19T00:47:11.999Z,15.15
2022-12-19T00:49:38.764Z,16.58
2022-12-19T00:52:10.412Z,15.35
2022-12-19T00:54:37.134Z,14.38
2022-12-19T00:57:06.573Z,16.70
2022-12-19T00:59:35.677Z,16.15
2022-12-19T01:02:05.005Z,13.43
2022-12-19T01:04:41.306Z,17.17
2022-12-19T01:07:08.609Z,17.83
2022-12-19T01:09:36.837Z,15.98
2022-12-19T01:12:24.883Z,14.25
2022-12-19T01:15:01.108Z,17.80
2022-12-19T01:17:34.649Z,19.50
2022-12-19T01:20:14.834Z,14.10
2022-12-19T01:22:41.537Z,16.55
2022-12-19T01:25:08.398Z,15.75
2022-12-19T01:27:35.132Z,14.23
2022-12-19T01:30:02.036Z,16.38
2022-12-19T01:32:31.144Z,16.40
2022-12-19T01:34:59.843Z,14.32
2022-12-19T01:37:26.544Z,14.27
2022-12-19T01:39:53.251Z,17.83
2022-12-19T01:42:23.507Z,17.35
2022-12-19T01:45:04.281Z,17.23
2022-12-19T01:47:32.720Z,16.20
2022-12-19T01:50:01.309Z,15.35
2022-12-19T01:52:30.394Z,17.10
2022-12-19T01:54:57.432Z,15.75
2022-12-19T01:57:29.948Z,13.48
2022-12-19T02:00:01.162Z,13.77
2022-12-19T02:02:38.559Z,13.70
2022-12-19T02:05:05.880Z,14.38
2022-12-19T02:07:34.649Z,14.45
2022-12-19T02:10:01.729Z,15.40
2022-12-19T02:12:32.959Z,17.38
2022-12-19T02:15:03.785Z,17.67
2022-12-19T02:17:33.204Z,16.73
2022-12-19T02:20:08.434Z,16.73
2022-12-19T02:22:53.880Z,14.82
2022-12-19T02:25:20.566Z,15.65
2022-12-19T02:28:17.841Z,15.98
2022-12-19T02:30:57.629Z,16.55
2022-12-19T02:33:59.470Z,17.42
2022-12-19T02:37:01.213Z,12.73
2022-12-19T02:39:51.702Z,14.80
2022-12-19T02:42:37.760Z,15.63
2022-12-19T02:45:10.043Z,16.42
2022-12-19T02:47:38.343Z,16.05
2022-12-19T02:50:08.947Z,15.23
2022-12-19T02:52:35.642Z,16.70
2022-12-19T02:55:15.041Z,16.98
2022-12-19T02:58:03.135Z,14.98
2022-12-19T03:00:32.834Z,17.02
2022-12-19T03:03:01.737Z,14.88
2022-12-19T03:05:34.522Z,15.27
2022-12-19T03:08:18.216Z,16.13
2022-12-19T03:10:47.616Z,15.85
2022-12-19T03:13:28.446Z,16.60
2022-12-19T03:16:00.826Z,14.40
2022-12-19T03:18:30.743Z,14.98
2022-12-19T03:20:57.733Z,14.88
2022-12-19T03:23:24.461Z,14.48
2022-12-19T03:25:57.835Z,16.95
2022-12-19T03:28:35.211Z,15.52
2022-12-19T03:31:04.048Z,16.13
2022-12-19T03:33:32.928Z,14.48
2022-12-19T03:36:04.728Z,13.80
2022-12-19T03:38:35.539Z,13.90
2022-12-19T03:41:05.104Z,13.40
2022-12-19T03:43:35.421Z,13.73
2022-12-19T03:46:20.787Z,13.48
2022-12-19T03:48:49.981Z,16.02
2022-12-19T03:51:49.521Z,17.33
2022-12-19T03:54:26.793Z,15.52
2022-12-19T03:56:58.643Z,16.17
2022-12-19T03:59:49.616Z,17.33
2022-12-19T04:02:19.724Z,18.15
2022-12-19T04:04:50.915Z,16.05
2022-12-19T04:07:23.502Z,18.10
2022-12-19T04:09:51.712Z,15.15
2022-12-19T04:12:26.988Z,15.90
2022-12-19T04:14:56.112Z,16.40
2022-12-19T04:17:51.225Z,15.50
2022-12-19T04:20:24.501Z,13.15
2022-12-19T04:23:04.049Z,15.75
2022-12-19T04:25:37.472Z,15.60
2022-12-19T04:28:18.587Z,16.05
2022-12-19T04:30:48.965Z,17.15
2022-12-19T04:33:16.069Z,14.73
2022-12-19T04:35:42.821Z,15.10
2022-12-19T04:38:11.951Z,16.40
2022-12-19T04:40:41.443Z,14.65
2022-12-19T04:43:09.286Z,14.35
2022-12-19T04:45:36.671Z,29.25
2022-12-19T04:48:08.146Z,24.88
2022-12-19T04:50:36.321Z,19.35
2022-12-19T04:53:05.715Z,17.45
2022-12-19T04:55:34.755Z,17.58
2022-12-19T04:58:08.390Z,20.58
2022-12-19T05:00:35.146Z,18.13
2022-12-19T05:03:06.879Z,17.77
2022-12-19T05:05:36.078Z,16.30
2022-12-19T05:08:04.939Z,16.42
2022-12-19T05:10:36.407Z,16.60
2022-12-19T05:13:05.282Z,18.90
2022-12-19T05:15:32.873Z,17.50
2022-12-19T05:18:01.847Z,17.60
2022-12-19T05:20:30.728Z,15.75
2022-12-19T05:23:03.211Z,18.85
2022-12-19T05:25:39.362Z,15.95
2022-12-19T05:28:06.106Z,16.38
2022-12-19T05:30:32.833Z,19.42
2022-12-19T05:32:59.602Z,17.98
2022-12-19T05:35:26.429Z,16.35
2022-12-19T05:37:53.171Z,19.55
2022-12-19T05:40:19.888Z,17.40
2022-12-19T05:42:49.176Z,16.15
2022-12-19T05:45:18.444Z,15.48
2022-12-19T05:47:48.359Z,15.32
2022-12-19T05:50:20.978Z,15.70
2022-12-19T05:52:47.647Z,15.13
2022-12-19T05:55:16.800Z,16.70
2022-12-19T05:57:45.914Z,14.73
2022-12-19T06:00:13.434Z,17.10
2022-12-19T06:02:40.206Z,17.48
2022-12-19T06:05:07.513Z,16.85
2022-12-19T06:07:39.207Z,17.73
2022-12-19T06:10:09.121Z,18.20
2022-12-19T06:12:38.124Z,14.90
2022-12-19T06:15:07.723Z,17.67
2022-12-19T06:17:39.089Z,16.35
2022-12-19T06:20:11.059Z,15.93
2022-12-19T06:25:05.162Z,17.65
2022-12-19T06:27:34.089Z,17.08
2022-12-19T06:30:00.794Z,16.63
2022-12-19T06:32:37.702Z,16.88
2022-12-19T06:35:05.540Z,15.77
2022-12-19T06:37:36.864Z,14.93
2022-12-19T06:40:06.641Z,18.20
2022-12-19T06:42:35.876Z,18.38
2022-12-19T06:45:07.272Z,17.13
2022-12-19T06:47:33.997Z,17.55
2022-12-19T06:50:00.723Z,16.67
2022-12-19T06:52:34.376Z,16.20
2022-12-19T06:55:03.354Z,17.27
2022-12-19T06:57:32.617Z,17.50
2022-12-19T06:59:59.343Z,16.73
2022-12-19T07:02:30.220Z,17.58
2022-12-19T07:05:05.428Z,17.20
2022-12-19T07:07:33.101Z,16.60
2022-12-19T07:10:03.677Z,14.98
2022-12-19T07:12:35.457Z,16.58
2022-12-19T07:15:04.594Z,18.95
2022-12-19T07:17:39.234Z,17.13
2022-12-19T07:20:12.253Z,19.27
2022-12-19T07:22:42.221Z,18.33
2022-12-19T07:25:09.638Z,16.65
2022-12-19T07:27:39.388Z,15.77
2022-12-19T07:30:08.051Z,14.63
2022-12-19T07:32:35.307Z,15.52
2022-12-19T07:35:02.684Z,14.80
2022-12-19T07:37:29.428Z,14.57
2022-12-19T07:39:58.373Z,15.63
2022-12-19T07:42:28.172Z,14.70
2022-12-19T07:44:58.925Z,14.95
2022-12-19T07:47:28.088Z,15.68
2022-12-19T07:49:54.809Z,16.27
2022-12-19T07:52:26.655Z,15.63
2022-12-19T07:54:56.050Z,15.93
2022-12-19T07:57:27.571Z,15.40
2022-12-19T07:59:56.499Z,14.73
2022-12-19T08:02:25.527Z,15.27
2022-12-19T08:04:52.521Z,16.58
2022-12-19T08:07:21.503Z,17.38
2022-12-19T08:09:52.837Z,16.13
2022-12-19T08:12:19.752Z,17.63
2022-12-19T08:14:49.836Z,17.08
2022-12-19T08:17:22.998Z,16.35
2022-12-19T08:19:52.332Z,15.90
2022-12-19T08:22:21.571Z,15.65
2022-12-19T08:24:50.712Z,17.80
2022-12-19T08:27:20.014Z,16.63
2022-12-19T08:29:48.985Z,15.32
2022-12-19T08:32:20.883Z,16.38
2022-12-19T08:34:49.421Z,15.13
2022-12-19T08:37:20.688Z,18.42
2022-12-19T08:39:49.658Z,15.93
2022-12-19T08:42:16.578Z,15.50
2022-12-19T08:44:45.404Z,15.88
2022-12-19T08:47:48.685Z,14.65
2022-12-19T08:50:15.576Z,15.30
2022-12-19T08:52:47.482Z,16.70
2022-12-19T08:55:16.861Z,14.18
2022-12-19T08:57:43.571Z,13.95
2022-12-19T09:00:13.553Z,15.90
2022-12-19T09:02:44.032Z,17.55
2022-12-19T09:06:00.335Z,16.25
2022-12-19T09:08:04.364Z,16.65
2022-12-19T09:10:35.560Z,15.88
2022-12-19T09:13:02.243Z,16.10
2022-12-19T09:15:31.679Z,16.10
2022-12-19T09:17:58.480Z,16.90
2022-12-19T09:20:25.186Z,15.70
2022-12-19T09:22:54.273Z,15.70
2022-12-19T09:25:23.095Z,15.80
2022-12-19T09:28:26.345Z,16.35
2022-12-19T09:30:44.017Z,17.98
2022-12-19T09:33:15.977Z,18.20
2022-12-19T09:35:52.763Z,20.27
2022-12-19T09:38:29.184Z,18.73
2022-12-19T09:41:18.783Z,18.88
2022-12-19T09:43:53.743Z,17.50
2022-12-19T09:46:34.632Z,19.30
2022-12-19T09:49:10.866Z,19.13
2022-12-19T09:52:10.471Z,20.45
2022-12-19T09:54:46.535Z,17.70
2022-12-19T09:57:32.855Z,21.00
2022-12-19T10:00:08.832Z,18.77
2022-12-19T10:02:45.270Z,17.23
2022-12-19T10:06:25.505Z,17.50
2022-12-19T10:08:45.632Z,17.00
2022-12-19T10:12:43.501Z,17.95
2022-12-19T10:15:08.301Z,17.80
2022-12-19T10:17:34.993Z,18.65
2022-12-19T10:20:20.498Z,17.63
2022-12-19T10:23:26.469Z,17.65
2022-12-19T10:26:11.450Z,17.25
2022-12-19T10:31:23.306Z,16.58
2022-12-19T10:34:19.032Z,18.95
2022-12-19T10:37:26.944Z,26.80
2022-12-19T10:39:45.525Z,23.33
2022-12-19T10:42:46.315Z,21.88
2022-12-19T10:45:16.230Z,16.90
2022-12-19T10:47:42.955Z,17.08
2022-12-19T10:50:17.741Z,14.70
2022-12-19T10:52:55.495Z,17.98
2022-12-19T10:55:40.436Z,16.60
2022-12-19T10:58:32.158Z,18.45
2022-12-19T11:01:10.362Z,16.65
2022-12-19T11:03:41.533Z,17.98
2022-12-19T11:06:37.229Z,15.57
2022-12-19T11:09:29.473Z,15.45
2022-12-19T11:19:28.647Z,15.23
2022-12-19T11:29:10.773Z,14.95
2022-12-19T11:29:38.524Z,15.50
2022-12-19T11:29:40.545Z,15.93
2022-12-19T11:30:09.511Z,14.25
2022-12-19T11:33:14.717Z,14.40
2022-12-19T11:35:53.998Z,16.38
2022-12-19T11:38:40.088Z,15.80
2022-12-19T11:41:16.846Z,15.60
2022-12-19T11:44:32.931Z,17.52
2022-12-19T11:47:08.049Z,15.70
2022-12-19T11:49:44.294Z,17.92
2022-12-19T11:53:03.360Z,16.98
2022-12-19T11:55:50.108Z,17.80
2022-12-19T11:58:17.180Z,17.08
2022-12-19T12:00:57.738Z,16.88
2022-12-19T12:03:30.512Z,17.50
2022-12-19T12:06:06.086Z,18.65
2022-12-19T12:11:05.282Z,18.10
2022-12-19T12:16:13.436Z,17.48
2022-12-19T12:29:54.076Z,20.83
2022-12-19T12:31:07.144Z,19.15
2022-12-19T12:31:28.339Z,19.10
2022-12-19T12:31:38.741Z,20.98
2022-12-19T12:31:42.236Z,17.92
2022-12-19T12:31:58.268Z,17.65
2022-12-19T12:35:19.909Z,19.25
2022-12-19T12:39:03.153Z,16.35
2022-12-19T12:42:03.811Z,20.30
2022-12-19T12:44:42.927Z,17.23
2022-12-19T12:47:17.812Z,18.35
2022-12-19T12:49:52.713Z,16.33
2022-12-19T12:52:27.134Z,17.92
2022-12-19T12:54:57.658Z,24.23
2022-12-19T12:57:29.528Z,14.65
2022-12-19T13:00:31.922Z,15.15
2022-12-19T13:03:21.404Z,14.43
2022-12-19T13:06:04.621Z,19.27
2022-12-19T13:08:50.020Z,22.33
2022-12-19T13:11:37.960Z,32.38
2022-12-19T13:14:37.193Z,24.52
2022-12-19T13:17:07.806Z,20.40
2022-12-19T13:19:36.427Z,18.60
2022-12-19T13:22:08.706Z,16.00
2022-12-19T13:24:46.287Z,15.77
2022-12-19T13:27:19.047Z,21.55
2022-12-19T13:30:00.818Z,19.17
2022-12-19T13:32:38.693Z,17.63
2022-12-19T13:39:10.736Z,19.75
2022-12-19T13:39:56.405Z,18.08
2022-12-19T13:41:58.164Z,20.02
2022-12-19T13:44:25.527Z,19.80
2022-12-19T13:46:55.284Z,24.23
2022-12-19T13:49:34.133Z,22.52
2022-12-19T13:52:03.619Z,25.63
2022-12-19T13:54:51.768Z,25.45
2022-12-19T13:57:30.108Z,24.95
2022-12-19T14:00:08.640Z,20.27
2022-12-19T14:02:44.733Z,25.40
2022-12-19T14:05:48.466Z,23.08
2022-12-19T14:08:25.371Z,18.23
2022-12-19T14:11:40.454Z,21.08
2022-12-19T14:14:17.464Z,20.25
2022-12-19T14:16:47.841Z,23.23
2022-12-19T14:19:26.156Z,21.48
2022-12-19T14:22:04.370Z,18.85
2022-12-19T14:24:35.022Z,18.58
2022-12-19T14:28:17.253Z,18.17
2022-12-19T14:30:28.005Z,19.75
2022-12-19T14:33:45.636Z,17.23
2022-12-19T14:36:08.662Z,13.90
2022-12-19T14:39:21.271Z,17.40
2022-12-19T14:42:02.654Z,17.42
2022-12-19T14:52:34.244Z,17.13
2022-12-19T14:53:52.151Z,15.52
2022-12-19T14:54:13.816Z,15.68
2022-12-19T14:54:20.958Z,16.30
2022-12-19T14:56:57.605Z,25.58
2022-12-19T14:59:29.190Z,19.33
2022-12-19T15:02:01.659Z,17.67
2022-12-19T15:04:50.229Z,16.85
2022-12-19T15:07:25.105Z,17.27
2022-12-19T15:11:05.181Z,17.50
2022-12-19T15:14:51.991Z,17.35
2022-12-19T15:16:27.776Z,17.55
2022-12-19T15:18:58.337Z,15.80
2022-12-19T15:21:29.008Z,16.08
2022-12-19T15:23:55.878Z,17.60
2022-12-19T15:26:48.365Z,17.10
2022-12-19T15:29:21.816Z,15.20
2022-12-19T15:31:51.914Z,15.70
2022-12-19T15:34:37.210Z,18.42
2022-12-19T15:37:12.896Z,18.48
2022-12-19T15:39:40.661Z,23.50
2022-12-19T15:42:21.535Z,21.52
2022-12-19T15:44:49.369Z,17.70
2022-12-19T15:47:25.678Z,21.95
2022-12-19T15:49:52.417Z,19.15
2022-12-19T15:52:25.356Z,15.35
2022-12-19T15:54:57.346Z,17.02
2022-12-19T15:57:39.774Z,16.33
2022-12-19T16:00:15.625Z,19.83
2022-12-19T16:03:21.285Z,16.63
2022-12-19T16:05:29.806Z,17.30
2022-12-19T16:07:58.653Z,18.25
2022-12-19T16:10:26.302Z,20.20
2022-12-19T16:12:55.834Z,23.83
2022-12-19T16:15:26.889Z,19.55
2022-12-19T16:17:54.749Z,21.40
2022-12-19T16:20:35.886Z,17.73
2022-12-19T16:23:04.864Z,18.23
2022-12-19T16:25:45.428Z,15.63
2022-12-19T16:28:30.350Z,19.50
2022-12-19T16:30:59.975Z,17.17
2022-12-19T16:33:29.766Z,19.70
2022-12-19T16:36:06.127Z,17.98
2022-12-19T16:38:33.868Z,19.27
2022-12-19T16:41:01.785Z,20.63
2022-12-19T16:43:33.307Z,15.70
2022-12-19T16:46:01.829Z,18.27
2022-12-19T16:48:30.075Z,17.58
2022-12-19T16:51:00.157Z,19.20
2022-12-19T16:53:27.037Z,19.52
2022-12-19T16:55:55.376Z,18.77
2022-12-19T16:58:27.162Z,20.10
2022-12-19T17:00:55.383Z,25.35
2022-12-19T17:03:41.505Z,20.77
2022-12-19T17:06:14.119Z,24.20
2022-12-19T17:08:41.542Z,18.65
2022-12-19T17:11:23.442Z,20.85
2022-12-19T17:14:01.746Z,31.63
2022-12-19T17:16:31.041Z,22.77
2022-12-19T17:18:58.962Z,22.45
2022-12-19T17:21:25.764Z,22.33
2022-12-19T17:23:52.903Z,17.38
2022-12-19T17:26:21.905Z,17.67
2022-12-19T17:28:48.721Z,17.92
2022-12-19T17:31:28.039Z,20.02
2022-12-19T17:33:57.700Z,15.95
2022-12-19T17:36:36.564Z,18.38
2022-12-19T17:39:16.951Z,16.60
2022-12-19T17:41:43.719Z,16.77
2022-12-19T17:44:15.374Z,17.25
2022-12-19T17:46:45.125Z,20.02
2022-12-19T17:49:26.360Z,18.17
2022-12-19T17:51:56.219Z,17.77
2022-12-19T17:54:26.117Z,14.93
2022-12-19T17:56:55.494Z,20.65
2022-12-19T17:59:22.221Z,20.77
2022-12-19T18:01:49.252Z,23.10
2022-12-19T18:04:21.118Z,24.23
2022-12-19T18:06:49.172Z,21.42
2022-12-19T18:09:23.953Z,21.35
2022-12-19T18:11:54.196Z,18.58
2022-12-19T18:14:23.204Z,20.38
2022-12-19T18:16:50.700Z,19.08
2022-12-19T18:19:22.127Z,18.88
2022-12-19T18:21:49.214Z,17.48
2022-12-19T18:24:16.755Z,20.48
2022-12-19T18:26:44.873Z,18.77
2022-12-19T18:29:11.840Z,17.50
2022-12-19T18:31:42.432Z,18.45
2022-12-19T18:34:22.581Z,19.83
2022-12-19T18:36:49.548Z,17.95
2022-12-19T18:39:21.920Z,17.13
2022-12-19T18:41:51.174Z,22.25
2022-12-19T18:44:22.609Z,20.92
2022-12-19T18:46:52.542Z,21.00
2022-12-19T18:49:22.978Z,18.17
2022-12-19T18:51:51.955Z,17.98
2022-12-19T18:54:24.276Z,26.75
2022-12-19T18:56:51.970Z,22.25
2022-12-19T18:59:18.735Z,20.40
2022-12-19T19:01:47.289Z,20.65
2022-12-19T19:04:17.656Z,22.77
2022-12-19T19:06:50.873Z,19.20
2022-12-19T19:09:21.672Z,17.75
2022-12-19T19:11:48.616Z,15.93
2022-12-19T19:14:17.945Z,16.73
2022-12-19T19:16:49.655Z,18.52
2022-12-19T19:19:18.839Z,17.38
2022-12-19T19:21:59.625Z,16.95
2022-12-19T19:24:26.466Z,20.58
2022-12-19T19:26:53.434Z,20.95
2022-12-19T19:29:20.249Z,21.02
2022-12-19T19:31:51.209Z,17.50
2022-12-19T19:34:21.692Z,18.65
2022-12-19T19:36:53.502Z,19.38
2022-12-19T19:39:22.058Z,18.40
2022-12-19T19:41:49.060Z,14.32
2022-12-19T19:44:15.940Z,20.02
2022-12-19T19:46:42.866Z,20.73
2022-12-19T19:49:12.369Z,21.20
2022-12-19T19:51:41.700Z,16.60
2022-12-19T19:54:11.034Z,18.95
2022-12-19T19:56:37.842Z,17.95
2022-12-19T19:59:07.821Z,21.13
2022-12-19T20:01:37.632Z,22.38
2022-12-19T20:04:07.770Z,23.33
2022-12-19T20:06:34.977Z,22.15
2022-12-19T20:09:04.029Z,23.33
2022-12-19T20:11:30.778Z,28.48
2022-12-19T20:13:57.578Z,21.88
2022-12-19T20:16:24.908Z,22.13
2022-12-19T20:18:52.967Z,23.67
2022-12-19T20:21:20.508Z,21.70
2022-12-19T20:23:47.319Z,24.17
2022-12-19T20:26:16.427Z,29.70
2022-12-19T20:28:48.797Z,25.58
2022-12-19T20:31:21.558Z,29.08
2022-12-19T20:33:53.105Z,24.02
2022-12-19T20:36:22.378Z,23.48
2022-12-19T20:38:52.032Z,23.63
2022-12-19T20:41:21.583Z,21.00
2022-12-19T20:43:52.345Z,20.70
2022-12-19T20:46:20.753Z,20.23
2022-12-19T20:48:49.404Z,18.95
2022-12-19T20:51:20.712Z,20.48
2022-12-19T20:53:49.014Z,21.25
2022-12-19T20:56:18.711Z,22.05
2022-12-19T20:58:50.575Z,22.90
2022-12-19T21:01:21.041Z,19.75
2022-12-19T21:03:51.224Z,21.23
2022-12-19T21:06:20.927Z,17.33
2022-12-19T21:08:53.003Z,22.13
2022-12-19T21:13:46.632Z,19.27
2022-12-19T21:16:16.562Z,18.85
2022-12-19T21:18:46.894Z,21.25
2022-12-19T21:21:22.759Z,20.23
2022-12-19T21:23:50.170Z,22.08
2022-12-19T21:26:17.329Z,23.40
2022-12-19T21:28:47.153Z,21.73
2022-12-19T21:31:30.292Z,22.27
2022-12-19T21:34:02.357Z,24.23
2022-12-19T21:39:02.336Z,22.30
2022-12-19T21:41:29.784Z,22.08
2022-12-19T21:44:00.685Z,26.45
2022-12-19T21:46:32.979Z,26.43
2022-12-19T21:49:03.337Z,26.40
2022-12-19T21:51:31.783Z,23.88
2022-12-19T21:54:01.069Z,24.80
2022-12-19T21:56:39.082Z,27.00
2022-12-19T21:59:10.070Z,24.55
2022-12-19T22:01:41.867Z,21.30
2022-12-19T22:04:21.006Z,21.17
2022-12-19T22:06:51.188Z,19.08
2022-12-19T22:09:20.888Z,23.48
2022-12-19T22:11:52.841Z,23.70
2022-12-19T22:16:46.574Z,21.45
2022-12-19T22:19:15.640Z,21.10
2022-12-19T22:21:48.612Z,17.95
2022-12-19T22:24:16.701Z,19.67
2022-12-19T22:26:46.340Z,23.88
2022-12-19T22:29:19.069Z,24.45
2022-12-19T22:31:49.588Z,19.00
2022-12-19T22:34:19.494Z,23.33
2022-12-19T22:36:47.189Z,23.65
2022-12-19T22:39:18.910Z,24.95
2022-12-19T22:41:45.823Z,20.17
2022-12-19T22:44:21.055Z,20.83
2022-12-19T22:46:51.326Z,22.75
2022-12-19T22:49:18.288Z,19.25
2022-12-19T22:51:47.698Z,21.67
2022-12-19T22:54:17.075Z,21.65
2022-12-19T22:56:43.893Z,24.35
2022-12-19T22:59:14.048Z,24.05
2022-12-19T23:01:46.058Z,23.80
2022-12-19T23:06:43.938Z,21.75
2022-12-19T23:09:14.227Z,23.25
2022-12-19T23:11:46.456Z,21.08
2022-12-19T23:14:17.947Z,21.27
2022-12-19T23:16:45.081Z,22.13
2022-12-19T23:19:15.207Z,22.52
2022-12-19T23:21:42.052Z,22.35
2022-12-19T23:24:13.902Z,19.77
2022-12-19T23:26:40.936Z,23.73
2022-12-19T23:29:10.433Z,24.48
2022-12-19T23:31:42.609Z,24.38
2022-12-19T23:34:12.491Z,23.25
2022-12-19T23:39:33.271Z,18.42
2022-12-19T23:42:02.216Z,23.92
2022-12-19T23:44:31.703Z,24.17
2022-12-19T23:47:03.003Z,21.77
2022-12-19T23:51:59.489Z,19.95
2022-12-19T23:54:26.295Z,18.88
2022-12-19T23:56:53.511Z,18.85
2022-12-19T23:59:20.328Z,19.63
